createdAt,value
2019-03-05T00:01:17.867Z,99171.06
2019-03-05T00:03:46.411Z,99166.53
2019-03-05T00:06:14.979Z,99177.42
2019-03-05T00:08:43.621Z,99177.32
2019-03-05T00:11:12.084Z,99183.45
2019-03-05T00:13:40.626Z,99184.77
2019-03-05T00:16:09.247Z,99185.59
2019-03-05T00:18:37.831Z,99176.81
2019-03-05T00:21:06.436Z,99183.77
2019-03-05T00:23:50.063Z,99187.34
2019-03-05T00:26:21.783Z,99185.64
2019-03-05T00:29:15.930Z,99186.28
2019-03-05T00:31:48.729Z,99192.00
2019-03-05T00:34:32.197Z,99189.85
2019-03-05T00:37:03.828Z,99190.08
2019-03-05T00:39:41.421Z,99194.56
2019-03-05T00:42:46.113Z,99196.71
2019-03-05T00:45:23.423Z,99201.73
2019-03-05T00:48:00.992Z,99202.92
2019-03-05T00:50:35.478Z,99201.52
2019-03-05T00:53:18.914Z,99199.36
2019-03-05T00:55:56.451Z,99199.18
2019-03-05T00:58:28.647Z,99211.25
2019-03-05T01:01:11.901Z,99198.48
2019-03-05T01:03:43.539Z,99208.91
2019-03-05T01:06:16.955Z,99213.90
2019-03-05T01:08:45.774Z,99198.22
2019-03-05T01:11:14.888Z,99202.83
2019-03-05T01:13:43.658Z,99194.55
2019-03-05T01:16:13.871Z,99215.95
2019-03-05T01:18:42.619Z,99205.48
2019-03-05T01:21:11.321Z,99189.70
2019-03-05T01:23:39.942Z,99196.20
2019-03-05T01:26:08.822Z,99192.91
2019-03-05T01:28:37.409Z,99201.77
2019-03-05T01:31:07.812Z,99193.50
2019-03-05T01:33:56.071Z,99194.01
2019-03-05T01:36:26.206Z,99194.06
2019-03-05T01:39:02.162Z,99187.52
2019-03-05T01:41:31.186Z,99186.00
2019-03-05T01:44:02.445Z,99187.98
2019-03-05T01:46:30.983Z,99188.16
2019-03-05T01:48:59.608Z,99184.00
2019-03-05T01:51:28.150Z,99193.33
2019-03-05T01:53:56.777Z,99198.95
2019-03-05T01:56:25.295Z,99193.05
2019-03-05T01:58:53.929Z,99199.22
2019-03-05T02:01:22.790Z,99205.72
2019-03-05T02:03:51.362Z,99202.23
2019-03-05T02:06:20.984Z,99216.58
2019-03-05T02:08:49.531Z,99226.36
2019-03-05T02:11:18.162Z,99201.58
2019-03-05T02:13:46.768Z,99209.03
2019-03-05T02:16:15.297Z,99205.92
2019-03-05T02:18:43.944Z,99206.24
2019-03-05T02:21:12.531Z,99211.91
2019-03-05T02:23:44.138Z,99204.36
2019-03-05T02:26:18.377Z,99202.77
2019-03-05T02:28:55.552Z,99204.24
2019-03-05T02:31:59.879Z,99220.50
2019-03-05T02:34:40.065Z,99207.84
2019-03-05T02:37:23.720Z,99209.96
2019-03-05T02:39:58.178Z,99212.11
2019-03-05T02:42:47.667Z,99208.14
2019-03-05T02:45:31.834Z,99215.94
2019-03-05T02:48:06.336Z,99207.11
2019-03-05T02:51:01.866Z,99213.59
2019-03-05T02:53:39.419Z,99209.00
2019-03-05T02:56:31.759Z,99210.01
2019-03-05T02:58:59.146Z,99214.30
2019-03-05T03:01:32.138Z,99213.66
2019-03-05T03:04:08.010Z,99217.31
2019-03-05T03:06:36.657Z,99210.38
2019-03-05T03:09:25.877Z,99210.52
2019-03-05T03:11:54.530Z,99217.48
2019-03-05T03:14:23.107Z,99214.98
2019-03-05T03:16:51.700Z,99217.56
2019-03-05T03:19:20.589Z,99227.61
2019-03-05T03:21:49.428Z,99225.78
2019-03-05T03:24:17.951Z,99216.95
2019-03-05T03:26:46.518Z,99217.55
2019-03-05T03:29:15.150Z,99221.63
2019-03-05T03:31:43.691Z,99222.52
2019-03-05T03:34:12.312Z,99231.08
2019-03-05T03:36:40.831Z,99228.71
2019-03-05T03:39:09.569Z,99230.92
2019-03-05T03:41:38.099Z,99234.64
2019-03-05T03:44:06.618Z,99236.97
2019-03-05T03:46:35.301Z,99241.91
2019-03-05T03:49:03.904Z,99239.18
2019-03-05T03:51:32.402Z,99233.12
2019-03-05T03:54:00.936Z,99233.70
2019-03-05T03:56:29.477Z,99232.38
2019-03-05T03:58:58.003Z,99239.57
2019-03-05T04:01:26.583Z,99245.87
2019-03-05T04:03:55.157Z,99247.89
2019-03-05T04:06:23.695Z,99246.63
2019-03-05T04:08:52.286Z,99247.84
2019-03-05T04:11:20.880Z,99250.23
2019-03-05T04:13:49.523Z,99258.36
2019-03-05T04:16:18.061Z,99258.42
2019-03-05T04:18:46.627Z,99261.66
2019-03-05T04:21:15.191Z,99259.83
2019-03-05T04:23:43.680Z,99259.05
2019-03-05T04:26:12.231Z,99257.22
2019-03-05T04:28:40.804Z,99269.72
2019-03-05T04:31:09.316Z,99280.98
2019-03-05T04:33:38.082Z,99267.19
2019-03-05T04:36:06.649Z,99272.31
2019-03-05T04:38:35.167Z,99267.09
2019-03-05T04:41:03.743Z,99266.58
2019-03-05T04:43:32.201Z,99274.90
2019-03-05T04:46:08.151Z,99274.80
2019-03-05T04:48:36.811Z,99274.40
2019-03-05T04:51:07.000Z,99299.91
2019-03-05T04:53:35.533Z,99274.80
2019-03-05T04:56:04.054Z,99284.05
2019-03-05T04:58:32.656Z,99277.06
2019-03-05T05:01:01.542Z,99283.94
2019-03-05T05:03:30.315Z,99279.81
2019-03-05T05:05:59.079Z,99277.34
2019-03-05T05:08:27.711Z,99289.03
2019-03-05T05:10:56.350Z,99276.92
2019-03-05T05:13:24.946Z,99293.19
2019-03-05T05:15:53.437Z,99292.87
2019-03-05T05:18:22.013Z,99297.48
2019-03-05T05:20:50.581Z,99295.91
2019-03-05T05:23:19.188Z,99297.55
2019-03-05T05:25:48.135Z,99304.29
2019-03-05T05:28:16.902Z,99308.05
2019-03-05T05:30:45.405Z,99315.53
2019-03-05T05:33:14.608Z,99313.02
2019-03-05T05:35:43.429Z,99313.56
2019-03-05T05:38:12.013Z,99312.45
2019-03-05T05:40:45.446Z,99317.11
2019-03-05T05:43:19.425Z,99326.42
2019-03-05T05:45:50.152Z,99323.98
2019-03-05T05:48:18.854Z,99335.34
2019-03-05T05:50:47.584Z,99332.87
2019-03-05T05:53:16.255Z,99330.72
2019-03-05T05:55:44.753Z,99342.97
2019-03-05T05:58:13.415Z,99330.72
2019-03-05T06:00:43.530Z,99348.91
2019-03-05T06:03:12.385Z,99357.80
2019-03-05T06:05:41.012Z,99349.27
2019-03-05T06:08:09.860Z,99345.80
2019-03-05T06:10:38.789Z,99359.88
2019-03-05T06:13:07.432Z,99359.55
2019-03-05T06:15:36.009Z,99372.38
2019-03-05T06:18:04.732Z,99357.80
2019-03-05T06:20:33.220Z,99363.73
2019-03-05T06:23:01.814Z,99369.69
2019-03-05T06:25:30.420Z,99369.50
2019-03-05T06:27:59.128Z,99373.34
2019-03-05T06:30:30.665Z,99382.36
2019-03-05T06:32:59.589Z,99378.64
2019-03-05T06:35:28.236Z,99386.95
2019-03-05T06:37:56.909Z,99382.55
2019-03-05T06:40:27.144Z,99391.21
2019-03-05T06:42:55.808Z,99393.15
2019-03-05T06:45:24.373Z,99409.27
2019-03-05T06:47:53.215Z,99398.23
2019-03-05T06:50:23.236Z,99401.64
2019-03-05T06:52:52.079Z,99412.89
2019-03-05T06:55:20.688Z,99409.02
2019-03-05T06:57:49.250Z,99418.12
2019-03-05T07:00:38.858Z,99424.17
2019-03-05T07:03:09.079Z,99424.83
2019-03-05T07:06:13.296Z,99427.69
2019-03-05T07:08:44.991Z,99436.36
2019-03-05T07:11:37.495Z,99427.80
2019-03-05T07:14:11.715Z,99433.92
2019-03-05T07:16:55.534Z,99440.66
2019-03-05T07:19:26.397Z,99456.47
2019-03-05T07:21:58.032Z,99452.77
2019-03-05T07:24:44.884Z,99454.09
2019-03-05T07:27:15.668Z,99447.08
2019-03-05T07:29:44.432Z,99459.87
2019-03-05T07:32:13.037Z,99465.47
2019-03-05T07:34:43.227Z,99471.95
2019-03-05T07:37:12.814Z,99477.58
2019-03-05T07:39:41.379Z,99474.73
2019-03-05T07:42:10.151Z,99476.66
2019-03-05T07:44:39.143Z,99488.54
2019-03-05T07:47:07.757Z,99499.72
2019-03-05T07:49:43.830Z,99493.16
2019-03-05T07:52:07.132Z,99488.59
2019-03-05T07:54:35.836Z,99494.11
2019-03-05T07:57:04.524Z,99497.63
2019-03-05T07:59:33.183Z,99484.88
2019-03-05T08:02:01.967Z,99490.55
2019-03-05T08:04:30.521Z,99500.34
2019-03-05T08:06:59.066Z,99491.82
2019-03-05T08:09:32.204Z,99498.33
2019-03-05T08:12:13.002Z,99503.61
2019-03-05T08:14:50.097Z,99508.42
2019-03-05T08:17:19.008Z,99509.88
2019-03-05T08:19:47.545Z,99507.55
2019-03-05T08:22:16.148Z,99525.34
2019-03-05T08:24:45.810Z,99523.36
2019-03-05T08:27:14.395Z,99519.88
2019-03-05T08:29:42.970Z,99524.38
2019-03-05T08:32:11.604Z,99541.50
2019-03-05T08:34:43.872Z,99529.45
2019-03-05T08:37:13.595Z,99546.81
2019-03-05T08:39:42.578Z,99545.84
2019-03-05T08:42:11.435Z,99526.96
2019-03-05T08:44:49.917Z,99537.86
2019-03-05T08:47:10.381Z,99554.80
2019-03-05T08:49:39.006Z,99563.66
2019-03-05T08:52:07.697Z,99555.37
2019-03-05T08:54:36.873Z,99569.91
2019-03-05T08:57:06.224Z,99562.62
2019-03-05T08:59:38.703Z,99575.17
2019-03-05T09:02:07.354Z,99570.91
2019-03-05T09:04:35.905Z,99568.20
2019-03-05T09:07:04.452Z,99582.00
2019-03-05T09:12:16.630Z,99580.08
2019-03-05T09:14:45.314Z,99588.64
2019-03-05T09:17:14.102Z,99589.30
2019-03-05T09:19:42.726Z,99583.25
2019-03-05T09:22:11.286Z,99592.04
2019-03-05T09:24:39.855Z,99602.85
2019-03-05T09:27:08.412Z,99586.92
2019-03-05T09:29:37.026Z,99586.98
2019-03-05T09:32:05.938Z,99600.47
2019-03-05T09:34:34.498Z,99613.48
2019-03-05T09:37:03.362Z,99603.70
2019-03-05T09:39:32.035Z,99608.51
2019-03-05T09:42:00.619Z,99607.89
2019-03-05T09:44:29.241Z,99606.02
2019-03-05T09:46:57.797Z,99623.67
2019-03-05T09:49:26.473Z,99642.06
2019-03-05T09:51:55.085Z,99625.58
2019-03-05T09:54:23.783Z,99636.52
2019-03-05T09:56:52.430Z,99651.69
2019-03-05T09:59:21.120Z,99632.20
2019-03-05T10:01:51.539Z,99648.79
2019-03-05T10:04:20.084Z,99649.43
2019-03-05T10:06:49.035Z,99663.45
2019-03-05T10:09:17.656Z,99650.03
2019-03-05T10:11:46.289Z,99679.02
2019-03-05T10:14:14.925Z,99660.78
2019-03-05T10:16:43.564Z,99666.80
2019-03-05T10:19:12.186Z,99663.97
2019-03-05T10:21:46.217Z,99661.22
2019-03-05T10:24:11.322Z,99675.16
2019-03-05T10:26:40.231Z,99667.66
2019-03-05T10:29:08.835Z,99655.55
2019-03-05T10:31:37.405Z,99666.81
2019-03-05T10:34:05.926Z,99669.37
2019-03-05T10:36:34.602Z,99663.83
2019-03-05T10:39:03.731Z,99675.25
2019-03-05T10:41:32.296Z,99667.68
2019-03-05T10:44:03.586Z,99693.88
2019-03-05T10:46:32.171Z,99665.80
2019-03-05T10:49:00.907Z,99660.83
2019-03-05T10:51:29.499Z,99666.84
2019-03-05T10:53:58.111Z,99665.33
2019-03-05T10:56:26.699Z,99663.27
2019-03-05T10:58:55.240Z,99670.86
2019-03-05T11:01:23.843Z,99666.96
2019-03-05T11:03:52.581Z,99661.42
2019-03-05T11:06:21.127Z,99678.78
2019-03-05T11:08:50.580Z,99679.91
2019-03-05T11:11:19.124Z,99679.72
2019-03-05T11:13:47.809Z,99683.33
2019-03-05T11:16:16.370Z,99672.91
2019-03-05T11:18:44.884Z,99678.78
2019-03-05T11:21:13.453Z,99685.20
2019-03-05T11:23:42.091Z,99683.62
2019-03-05T11:26:10.598Z,99675.81
2019-03-05T11:28:39.049Z,99685.62
2019-03-05T11:31:08.352Z,99678.99
2019-03-05T11:33:36.989Z,99675.73
2019-03-05T11:36:06.126Z,99684.78
2019-03-05T11:38:34.868Z,99673.52
2019-03-05T11:41:03.648Z,99676.48
2019-03-05T11:43:32.425Z,99674.73
2019-03-05T11:46:01.057Z,99674.09
2019-03-05T11:48:29.495Z,99680.34
2019-03-05T11:50:58.045Z,99683.38
2019-03-05T11:53:26.624Z,99678.97
2019-03-05T11:55:58.005Z,99682.14
2019-03-05T11:58:26.626Z,99687.59
2019-03-05T12:01:02.924Z,99677.83
2019-03-05T12:03:31.476Z,99690.17
2019-03-05T12:06:00.013Z,99697.23
2019-03-05T12:08:28.638Z,99710.53
2019-03-05T12:10:57.249Z,99710.34
2019-03-05T12:13:26.235Z,99716.22
2019-03-05T12:15:54.848Z,99696.69
2019-03-05T12:18:25.370Z,99704.34
2019-03-05T12:20:53.974Z,99704.03
2019-03-05T12:23:22.607Z,99713.42
2019-03-05T12:25:51.450Z,99709.48
2019-03-05T12:28:20.069Z,99710.03
2019-03-05T12:30:48.635Z,99709.84
2019-03-05T12:33:17.509Z,99714.02
2019-03-05T12:35:46.082Z,99717.18
2019-03-05T12:38:14.886Z,99712.92
2019-03-05T12:40:43.409Z,99710.53
2019-03-05T12:43:12.058Z,99711.34
2019-03-05T12:45:40.583Z,99702.49
2019-03-05T12:48:09.244Z,99700.08
2019-03-05T12:50:38.411Z,99701.66
2019-03-05T12:53:07.267Z,99696.42
2019-03-05T12:55:35.951Z,99687.13
2019-03-05T12:58:04.701Z,99696.16
2019-03-05T13:00:35.424Z,99706.73
2019-03-05T13:03:04.305Z,99707.06
2019-03-05T13:05:32.887Z,99697.84
2019-03-05T13:08:01.672Z,99723.50
2019-03-05T13:10:37.333Z,99722.27
2019-03-05T13:13:05.814Z,99718.88
2019-03-05T13:15:41.828Z,99734.37
2019-03-05T13:18:10.426Z,99723.52
2019-03-05T13:20:39.081Z,99726.57
2019-03-05T13:23:10.728Z,99734.21
2019-03-05T13:25:39.855Z,99731.19
2019-03-05T13:28:08.480Z,99737.19
2019-03-05T13:30:37.121Z,99731.20
2019-03-05T13:33:05.657Z,99735.58
2019-03-05T13:35:34.690Z,99734.31
2019-03-05T13:38:09.792Z,99736.48
2019-03-05T13:40:40.504Z,99739.98
2019-03-05T13:43:08.830Z,99744.30
2019-03-05T13:45:37.370Z,99737.05
2019-03-05T13:48:41.986Z,99741.05
2019-03-05T13:51:23.155Z,99748.25
2019-03-05T13:54:10.640Z,99751.77
2019-03-05T13:56:51.114Z,99754.20
2019-03-05T13:59:44.916Z,99748.62
2019-03-05T14:02:17.473Z,99750.78
2019-03-05T14:04:52.040Z,99757.70
2019-03-05T14:07:26.461Z,99754.48
2019-03-05T14:09:55.190Z,99760.49
2019-03-05T14:12:23.813Z,99764.91
2019-03-05T14:14:52.214Z,99778.67
2019-03-05T14:17:22.345Z,99773.84
2019-03-05T14:19:50.984Z,99782.52
2019-03-05T14:22:20.398Z,99777.73
2019-03-05T14:25:01.032Z,99780.89
2019-03-05T14:27:20.040Z,99785.38
2019-03-05T14:29:49.248Z,99784.15
2019-03-05T14:32:18.142Z,99789.81
2019-03-05T14:34:49.765Z,99796.48
2019-03-05T14:37:18.468Z,99791.73
2019-03-05T14:39:47.173Z,99798.11
2019-03-05T14:42:15.864Z,99794.27
2019-03-05T14:44:44.565Z,99791.04
2019-03-05T14:47:13.213Z,99799.48
2019-03-05T14:49:41.796Z,99798.59
2019-03-05T14:52:10.379Z,99813.92
2019-03-05T14:54:39.275Z,99803.45
2019-03-05T14:57:08.010Z,99806.10
2019-03-05T14:59:36.951Z,99812.17
2019-03-05T15:02:05.846Z,99817.45
2019-03-05T15:04:34.561Z,99813.98
2019-03-05T15:07:04.676Z,99814.05
2019-03-05T15:09:33.518Z,99817.28
2019-03-05T15:12:02.082Z,99826.19
2019-03-05T15:14:30.806Z,99826.52
2019-03-05T15:16:59.537Z,99841.59
2019-03-05T15:19:28.156Z,99837.08
2019-03-05T15:21:56.781Z,99841.19
2019-03-05T15:24:25.471Z,99847.70
2019-03-05T15:26:54.035Z,99848.47
2019-03-05T15:29:22.713Z,99861.95
2019-03-05T15:31:51.357Z,99879.55
2019-03-05T15:34:19.833Z,99886.30
2019-03-05T15:36:51.938Z,99874.17
2019-03-05T15:39:19.030Z,99876.07
2019-03-05T15:41:47.700Z,99873.23
2019-03-05T15:44:16.314Z,99893.59
2019-03-05T15:46:50.276Z,99890.67
2019-03-05T15:49:18.979Z,99889.30
2019-03-05T15:51:47.664Z,99892.78
2019-03-05T15:54:16.578Z,99893.52
2019-03-05T15:56:45.187Z,99882.50
2019-03-05T15:59:13.831Z,99883.19
2019-03-05T16:01:42.482Z,99891.55
2019-03-05T16:04:11.093Z,99900.11
2019-03-05T16:06:39.650Z,99898.38
2019-03-05T16:09:16.055Z,99904.80
2019-03-05T16:11:44.503Z,99910.94
2019-03-05T16:14:13.126Z,99923.16
2019-03-05T16:16:41.877Z,99926.84
2019-03-05T16:19:12.482Z,99933.25
2019-03-05T16:21:41.519Z,99949.16
2019-03-05T16:24:11.313Z,99970.30
2019-03-05T16:26:51.216Z,100010.80
2019-03-05T16:29:20.855Z,100016.52
2019-03-05T16:31:57.276Z,99999.94
2019-03-05T16:34:33.289Z,100002.63
2019-03-05T16:37:05.669Z,100014.64
2019-03-05T16:39:50.564Z,100012.98
2019-03-05T16:42:23.766Z,100025.80
2019-03-05T16:44:53.863Z,100022.02
2019-03-05T16:47:30.070Z,100032.19
2019-03-05T16:50:16.446Z,100023.44
2019-03-05T16:52:49.380Z,100030.72
2019-03-05T16:55:35.874Z,100031.03
2019-03-05T16:58:14.553Z,100021.11
2019-03-05T17:01:00.964Z,100012.12
2019-03-05T17:03:39.987Z,100017.40
2019-03-05T17:06:24.912Z,100030.03
2019-03-05T17:08:58.093Z,100030.84
2019-03-05T17:11:31.335Z,100036.48
2019-03-05T17:14:00.002Z,100044.25
2019-03-05T17:16:28.562Z,100053.53
2019-03-05T17:18:57.020Z,100061.47
2019-03-05T17:21:27.831Z,100058.50
2019-03-05T17:23:55.922Z,100070.75
2019-03-05T17:26:24.575Z,100075.72
2019-03-05T17:28:53.272Z,100077.72
2019-03-05T17:31:22.021Z,100080.36
2019-03-05T17:33:50.643Z,100090.00
2019-03-05T17:36:21.205Z,100102.23
2019-03-05T17:38:49.834Z,100106.55
2019-03-05T17:41:18.481Z,100115.67
2019-03-05T17:43:47.182Z,100124.80
2019-03-05T17:46:16.076Z,100127.80
2019-03-05T17:48:44.677Z,100137.23
2019-03-05T17:51:13.553Z,100146.84
2019-03-05T17:53:42.251Z,100151.63
2019-03-05T17:56:11.229Z,100164.03
2019-03-05T17:58:39.803Z,100164.19
2019-03-05T18:01:09.246Z,100173.13
2019-03-05T18:03:38.160Z,100175.17
2019-03-05T18:06:06.952Z,100177.98
2019-03-05T18:08:35.701Z,100179.15
2019-03-05T18:11:04.331Z,100181.45
2019-03-05T18:13:32.946Z,100186.56
2019-03-05T18:16:02.059Z,100189.55
2019-03-05T18:18:31.165Z,100193.83
2019-03-05T18:20:59.826Z,100195.19
2019-03-05T18:23:28.398Z,100204.64
2019-03-05T18:25:56.957Z,100211.10
2019-03-05T18:28:25.749Z,100209.13
2019-03-05T18:30:54.609Z,100219.53
2019-03-05T18:33:23.321Z,100226.38
2019-03-05T18:35:51.990Z,100223.36
2019-03-05T18:38:20.598Z,100225.54
2019-03-05T18:40:49.465Z,100224.68
2019-03-05T18:43:18.638Z,100233.67
2019-03-05T18:45:47.247Z,100244.01
2019-03-05T18:48:15.910Z,100249.34
2019-03-05T18:50:44.717Z,100240.56
2019-03-05T18:53:13.839Z,100251.98
2019-03-05T18:55:42.499Z,100252.55
2019-03-05T18:58:12.166Z,100257.77
2019-03-05T19:00:40.806Z,100261.32
2019-03-05T19:03:12.298Z,100251.75
2019-03-05T19:05:41.006Z,100263.81
2019-03-05T19:08:09.676Z,100270.77
2019-03-05T19:10:38.316Z,100277.21
2019-03-05T19:13:06.948Z,100286.29
2019-03-05T19:15:36.233Z,100284.02
2019-03-05T19:18:05.865Z,100285.98
2019-03-05T19:20:34.630Z,100291.47
2019-03-05T19:23:03.378Z,100293.93
2019-03-05T19:25:33.887Z,100302.30
2019-03-05T19:28:02.715Z,100308.23
2019-03-05T19:30:39.070Z,100317.02
2019-03-05T19:33:07.808Z,100318.82
2019-03-05T19:35:36.516Z,100324.91
2019-03-05T19:38:05.349Z,100325.44
2019-03-05T19:40:45.487Z,100332.20
2019-03-05T19:43:14.119Z,100332.20
2019-03-05T19:45:42.662Z,100333.14
2019-03-05T19:48:11.376Z,100339.95
2019-03-05T19:50:39.927Z,100346.52
2019-03-05T19:53:08.541Z,100353.48
2019-03-05T19:55:37.046Z,100349.94
2019-03-05T19:58:08.629Z,100357.04
2019-03-05T20:00:46.176Z,100352.04
2019-03-05T20:03:23.858Z,100360.13
2019-03-05T20:05:52.588Z,100364.09
2019-03-05T20:08:21.296Z,100361.44
2019-03-05T20:10:50.180Z,100371.74
2019-03-05T20:13:18.811Z,100373.41
2019-03-05T20:15:47.557Z,100378.86
2019-03-05T20:18:16.259Z,100384.62
2019-03-05T20:20:44.846Z,100382.55
2019-03-05T20:23:13.434Z,100390.18
2019-03-05T20:25:42.216Z,100391.80
2019-03-05T20:28:10.921Z,100397.44
2019-03-05T20:30:39.500Z,100396.28
2019-03-05T20:33:08.514Z,100407.88
2019-03-05T20:35:37.078Z,100414.84
2019-03-05T20:38:06.165Z,100415.59
2019-03-05T20:40:34.738Z,100410.25
2019-03-05T20:43:03.945Z,100414.41
2019-03-05T20:45:44.273Z,100417.55
2019-03-05T20:48:12.976Z,100420.14
2019-03-05T20:50:41.544Z,100419.14
2019-03-05T20:53:10.433Z,100427.28
2019-03-05T20:55:39.069Z,100429.64
2019-03-05T20:58:07.694Z,100430.81
2019-03-05T21:00:37.560Z,100432.08
2019-03-05T21:03:12.800Z,100434.73
2019-03-05T21:05:44.996Z,100447.52
2019-03-05T21:08:15.344Z,100449.84
2019-03-05T21:10:43.868Z,100451.58
2019-03-05T21:13:12.727Z,100453.02
2019-03-05T21:15:41.668Z,100454.70
2019-03-05T21:18:14.669Z,100458.16
2019-03-05T21:20:43.246Z,100457.67
2019-03-05T21:23:12.243Z,100464.63
2019-03-05T21:25:40.931Z,100465.14
2019-03-05T21:28:09.521Z,100467.30
2019-03-05T21:30:38.164Z,100464.37
2019-03-05T21:33:07.007Z,100470.64
2019-03-05T21:35:35.559Z,100470.64
2019-03-05T21:38:04.131Z,100478.63
2019-03-05T21:40:33.385Z,100473.89
2019-03-05T21:43:02.000Z,100481.47
2019-03-05T21:45:36.265Z,100486.79
2019-03-05T21:48:05.751Z,100485.95
2019-03-05T21:50:34.377Z,100496.02
2019-03-05T21:53:03.247Z,100492.91
2019-03-05T21:55:31.902Z,100499.24
2019-03-05T21:58:00.452Z,100502.72
2019-03-05T22:00:33.620Z,100500.11
2019-03-05T22:03:02.885Z,100502.75
2019-03-05T22:05:31.609Z,100504.92
2019-03-05T22:08:00.185Z,100511.19
2019-03-05T22:10:28.728Z,100517.80
2019-03-05T22:12:57.226Z,100521.08
2019-03-05T22:15:31.108Z,100522.72
2019-03-05T22:17:59.682Z,100524.03
2019-03-05T22:20:28.226Z,100521.50
2019-03-05T22:22:57.119Z,100528.87
2019-03-05T22:25:29.210Z,100538.41
2019-03-05T22:27:58.211Z,100539.11
2019-03-05T22:30:32.122Z,100540.70
2019-03-05T22:33:00.921Z,100539.24
2019-03-05T22:35:29.531Z,100544.49
2019-03-05T22:37:58.167Z,100544.14
2019-03-05T22:40:27.622Z,100542.58
2019-03-05T22:42:56.388Z,100541.84
2019-03-05T22:45:30.067Z,100547.27
2019-03-05T22:47:58.717Z,100550.79
2019-03-05T22:50:27.399Z,100553.98
2019-03-05T22:52:55.969Z,100559.44
2019-03-05T22:55:24.724Z,100562.64
2019-03-05T22:57:53.455Z,100562.30
2019-03-05T23:00:51.724Z,100560.59
2019-03-05T23:03:23.117Z,100575.67
2019-03-05T23:05:51.873Z,100582.58
2019-03-05T23:08:21.847Z,100579.55
2019-03-05T23:10:50.737Z,100585.23
2019-03-05T23:13:21.876Z,100585.72
2019-03-05T23:15:50.589Z,100589.34
2019-03-05T23:18:19.483Z,100587.27
2019-03-05T23:20:48.127Z,100587.34
2019-03-05T23:23:16.851Z,100590.75
2019-03-05T23:25:45.527Z,100588.24
2019-03-05T23:28:14.198Z,100590.75
2019-03-05T23:30:42.776Z,100595.15
2019-03-05T23:33:11.426Z,100595.50
2019-03-05T23:35:39.909Z,100598.97
2019-03-05T23:38:08.490Z,100599.73
2019-03-05T23:40:37.051Z,100603.69
2019-03-05T23:43:05.871Z,100607.03
2019-03-05T23:45:34.620Z,100607.61
2019-03-05T23:48:03.135Z,100608.09
2019-03-05T23:50:31.693Z,100611.70
2019-03-05T23:53:00.341Z,100612.27
2019-03-05T23:55:29.304Z,100612.19
2019-03-05T23:57:57.957Z,100618.59
